createdAt,value
2023-05-15T00:08:23.088Z,16.06
2023-05-15T00:18:24.964Z,15.98
2023-05-15T00:28:26.869Z,15.89
2023-05-15T00:38:28.762Z,15.80
2023-05-15T00:48:46.943Z,15.74
2023-05-15T00:58:50.925Z,15.60
2023-05-15T01:08:56.502Z,15.39
2023-05-15T01:19:05.958Z,15.22
2023-05-15T01:29:45.788Z,15.08
2023-05-15T01:39:51.951Z,15.11
2023-05-15T01:49:56.293Z,14.96
2023-05-15T02:00:00.139Z,14.95
2023-05-15T02:10:02.922Z,14.88
2023-05-15T02:20:08.780Z,14.89
2023-05-15T02:30:16.708Z,14.77
2023-05-15T02:40:21.961Z,14.62
2023-05-15T02:50:24.002Z,14.64
2023-05-15T03:00:29.354Z,14.66
2023-05-15T03:10:43.335Z,14.72
2023-05-15T03:20:53.228Z,14.67
2023-05-15T03:30:57.328Z,14.71
2023-05-15T03:40:59.230Z,14.81
2023-05-15T03:51:01.191Z,14.89
2023-05-15T04:01:04.388Z,14.72
2023-05-15T04:11:06.933Z,14.64
2023-05-15T04:21:08.853Z,14.48
2023-05-15T04:31:17.280Z,14.55
2023-05-15T04:41:21.245Z,14.77
2023-05-15T04:51:23.159Z,14.72
2023-05-15T05:01:46.204Z,14.50
2023-05-15T05:11:48.361Z,14.24
2023-05-15T05:21:54.731Z,14.30
2023-05-15T05:32:00.295Z,14.29
2023-05-15T05:42:02.598Z,14.31
2023-05-15T05:52:08.667Z,14.34
2023-05-15T06:02:22.888Z,14.32
2023-05-15T06:12:37.189Z,14.12
2023-05-15T06:22:39.443Z,13.64
2023-05-15T06:32:42.284Z,13.13
2023-05-15T06:42:44.949Z,12.98
2023-05-15T06:52:46.966Z,12.83
2023-05-15T07:02:52.124Z,12.69
2023-05-15T07:12:54.161Z,12.53
2023-05-15T07:22:56.932Z,12.55
2023-05-15T07:33:16.649Z,12.57
2023-05-15T07:43:24.638Z,12.54
2023-05-15T07:53:30.672Z,12.66
2023-05-15T08:03:33.253Z,12.72
2023-05-15T08:13:37.445Z,12.76
2023-05-15T08:23:44.692Z,12.94
2023-05-15T08:33:55.649Z,12.98
2023-05-15T08:43:59.252Z,12.94
2023-05-15T08:54:01.303Z,12.81
2023-05-15T09:04:05.992Z,12.21
2023-05-15T09:14:15.569Z,12.30
2023-05-15T09:24:25.681Z,12.36
2023-05-15T09:34:43.041Z,12.38
2023-05-15T09:44:46.581Z,12.40
2023-05-15T09:54:50.694Z,12.38
2023-05-15T10:04:57.338Z,12.17
2023-05-15T10:15:04.019Z,12.33
2023-05-15T10:25:34.955Z,12.51
2023-05-15T10:35:52.399Z,12.47
2023-05-15T10:45:55.962Z,12.45
2023-05-15T10:55:58.130Z,12.49
2023-05-15T11:06:10.067Z,12.55
2023-05-15T11:16:12.902Z,12.57
2023-05-15T11:26:16.056Z,12.53
2023-05-15T11:36:23.911Z,12.55
2023-05-15T11:46:33.819Z,12.59
2023-05-15T11:56:35.696Z,12.66
2023-05-15T12:06:38.787Z,12.67
2023-05-15T12:16:43.840Z,12.75
2023-05-15T12:26:46.937Z,12.77
2023-05-15T12:36:50.886Z,12.80
2023-05-15T12:46:55.882Z,12.50
2023-05-15T12:56:58.326Z,12.86
2023-05-15T13:07:02.264Z,13.05
2023-05-15T13:17:08.475Z,13.08
2023-05-15T13:27:10.442Z,13.04
2023-05-15T13:37:12.397Z,13.24
2023-05-15T13:47:14.389Z,13.42
2023-05-15T13:57:16.619Z,13.64
2023-05-15T14:07:24.504Z,13.81
2023-05-15T14:17:28.155Z,14.03
2023-05-15T14:27:32.195Z,14.15
2023-05-15T14:37:34.252Z,14.17
2023-05-15T14:47:40.662Z,14.37
2023-05-15T14:57:42.672Z,14.51
2023-05-15T15:08:02.084Z,14.68
2023-05-15T15:18:10.445Z,14.92
2023-05-15T15:28:16.805Z,14.97
2023-05-15T15:38:23.865Z,15.26
2023-05-15T15:48:28.107Z,15.27
2023-05-15T15:58:37.330Z,15.17
2023-05-15T16:08:39.321Z,15.13
2023-05-15T16:18:41.368Z,15.34
2023-05-15T16:28:43.379Z,15.06
2023-05-15T16:38:45.518Z,14.84
2023-05-15T16:49:04.658Z,14.81
2023-05-15T16:59:16.540Z,14.80
2023-05-15T17:09:18.644Z,14.75
2023-05-15T17:19:28.414Z,14.74
2023-05-15T17:29:43.419Z,14.72
2023-05-15T17:39:45.465Z,14.54
2023-05-15T17:49:48.553Z,14.42
2023-05-15T17:59:50.592Z,14.21
2023-05-15T18:09:53.675Z,14.09
2023-05-15T18:19:55.716Z,14.05
2023-05-15T18:29:58.194Z,13.96
2023-05-15T18:40:00.259Z,13.80
2023-05-15T18:50:12.017Z,13.05
2023-05-15T19:00:18.893Z,12.63
2023-05-15T19:10:29.734Z,12.46
2023-05-15T19:20:38.955Z,12.39
2023-05-15T19:30:41.448Z,12.31
2023-05-15T19:40:45.887Z,12.39
2023-05-15T19:50:47.974Z,12.28
2023-05-15T20:00:53.005Z,12.03
2023-05-15T20:10:55.213Z,11.92
2023-05-15T20:21:02.312Z,11.84
2023-05-15T20:31:04.455Z,11.73
2023-05-15T20:41:23.212Z,11.79
2023-05-15T20:51:25.402Z,11.84
2023-05-15T21:01:27.397Z,11.89
2023-05-15T21:11:54.935Z,12.14
2023-05-15T21:21:56.883Z,12.16
2023-05-15T21:32:05.996Z,12.22
2023-05-15T21:42:11.184Z,12.15
2023-05-15T21:52:18.973Z,12.02
2023-05-15T22:02:21.035Z,11.85
2023-05-15T22:12:23.057Z,11.86
2023-05-15T22:22:24.931Z,11.74
2023-05-15T22:32:26.964Z,11.73
2023-05-15T22:42:29.035Z,11.69
2023-05-15T22:52:30.867Z,11.50
2023-05-15T23:02:34.911Z,11.43
2023-05-15T23:12:36.810Z,11.31
2023-05-15T23:22:39.604Z,11.30
2023-05-15T23:32:41.653Z,11.36
2023-05-15T23:42:43.547Z,11.37
2023-05-15T23:52:45.481Z,11.46
